Time;durP1;ratioP1;P1;durP2;ratioP2;P2;SDS_P1;SDS_P2;PMS_P1;PMS_P2;Temp;Humidity;BMP_temperature;BMP_pressure;BME280_temperature;BME280_humidity;BME280_pressure;Samples;Min_cycle;Max_cycle;Signal;HPM_P1;HPM_P2
2023/10/26 00:01:56;;;;;;;;;4.00;4.00;;;;;;;;5125589;27;45463;-51
2023/10/26 00:04:21;;;;;;;;;4.00;4.00;;;;;;;;5131891;27;45558;-49
2023/10/26 00:06:46;;;;;;;;;2.00;2.00;;;;;;;;5133281;27;45439;-50
2023/10/26 00:09:11;;;;;;;;;3.33;3.33;;;;;;;;5127958;27;45473;-51
2023/10/26 00:11:36;;;;;;;;;5.67;3.67;;;;;;;;5132208;27;45417;-52
2023/10/26 00:14:02;;;;;;;;;6.33;5.33;;;;;;;;5114366;27;45488;-50
2023/10/26 00:16:27;;;;;;;;;3.00;3.00;;;;;;;;5131750;27;45439;-50
2023/10/26 00:18:52;;;;;;;;;3.67;3.00;;;;;;;;5140164;27;46373;-49
2023/10/26 00:21:17;;;;;;;;;2.67;2.67;;;;;;;;5130864;27;45309;-51
2023/10/26 00:23:43;;;;;;;;;0.00;0.00;;;;;;;;5113616;27;45336;-50
2023/10/26 00:26:09;;;;;;;;;3.33;3.33;;;;;;;;5140275;27;45387;-52
2023/10/26 00:28:34;;;;;;;;;6.00;4.67;;;;;;;;5132416;27;45544;-50
2023/10/26 00:30:59;;;;;;;;;3.67;3.67;;;;;;;;5139458;27;45304;-49
2023/10/26 00:33:25;;;;;;;;;3.00;3.00;;;;;;;;5136663;27;45402;-52
2023/10/26 00:35:51;;;;;;;;;3.67;3.67;;;;;;;;5138226;27;45593;-50
2023/10/26 00:38:16;;;;;;;;;4.33;4.33;;;;;;;;5135338;27;46418;-50
2023/10/26 00:40:41;;;;;;;;;2.00;2.00;;;;;;;;5139654;27;45357;-52
2023/10/26 00:43:18;;;;;;;;;2.67;2.67;;;;;;;;5138173;27;45456;-52
2023/10/26 00:45:43;;;;;;;;;4.67;4.67;;;;;;;;5135755;27;45704;-51
2023/10/26 00:48:09;;;;;;;;;2.67;2.67;;;;;;;;5121990;27;46832;-52
2023/10/26 00:50:34;;;;;;;;;3.67;1.67;;;;;;;;5137378;27;45328;-50
2023/10/26 00:53:00;;;;;;;;;3.33;3.33;;;;;;;;5136906;27;45337;-52
2023/10/26 00:55:25;;;;;;;;;5.00;3.33;;;;;;;;5142506;27;45286;-50
2023/10/26 00:57:51;;;;;;;;;4.33;3.33;;;;;;;;5142200;27;45990;-52
2023/10/26 01:00:16;;;;;;;;;3.67;2.67;;;;;;;;5143526;27;45343;-49
2023/10/26 01:02:42;;;;;;;;;1.67;1.67;;;;;;;;5135561;27;45474;-49
2023/10/26 01:05:07;;;;;;;;;2.33;2.33;;;;;;;;5139470;27;45418;-52
2023/10/26 01:07:32;;;;;;;;;3.33;3.33;;;;;;;;5139719;27;45483;-52
2023/10/26 01:09:58;;;;;;;;;4.00;2.33;;;;;;;;5141706;27;45423;-50
2023/10/26 01:12:23;;;;;;;;;0.67;0.67;;;;;;;;5139922;27;45307;-51
2023/10/26 01:14:49;;;;;;;;;3.00;3.00;;;;;;;;5143798;27;45355;-51
2023/10/26 01:17:14;;;;;;;;;3.00;2.67;;;;;;;;5139500;27;45301;-49
2023/10/26 01:19:41;;;;;;;;;1.67;1.67;;;;;;;;5138485;27;45424;-50
2023/10/26 01:22:06;;;;;;;;;3.00;3.00;;;;;;;;5137423;27;45280;-50
2023/10/26 01:24:32;;;;;;;;;0.67;0.33;;;;;;;;5143035;27;45322;-53
2023/10/26 01:26:57;;;;;;;;;2.00;1.00;;;;;;;;5112462;27;46965;-49
2023/10/26 01:29:22;;;;;;;;;4.67;3.33;;;;;;;;5142608;27;45289;-51
2023/10/26 01:31:48;;;;;;;;;3.00;3.00;;;;;;;;5139926;27;45672;-52
2023/10/26 01:34:13;;;;;;;;;2.00;2.00;;;;;;;;5115634;27;45447;-52
2023/10/26 01:36:39;;;;;;;;;3.33;3.00;;;;;;;;5131688;27;45554;-49
2023/10/26 01:39:04;;;;;;;;;3.67;3.67;;;;;;;;5134215;27;45456;-52
2023/10/26 01:41:31;;;;;;;;;3.00;2.33;;;;;;;;5141461;27;45167;-50
2023/10/26 01:43:56;;;;;;;;;3.67;3.67;;;;;;;;5115586;27;45455;-51
2023/10/26 01:46:21;;;;;;;;;3.33;2.33;;;;;;;;5130873;27;45997;-50
2023/10/26 01:48:46;;;;;;;;;2.67;2.67;;;;;;;;5133095;27;45415;-48
2023/10/26 01:51:11;;;;;;;;;3.67;3.67;;;;;;;;5139044;27;45452;-50
2023/10/26 01:53:37;;;;;;;;;2.67;2.67;;;;;;;;5142982;27;45328;-52
2023/10/26 01:56:02;;;;;;;;;2.67;2.67;;;;;;;;5138323;27;45524;-50
2023/10/26 01:58:27;;;;;;;;;3.00;2.67;;;;;;;;5138039;27;45268;-51
2023/10/26 02:00:52;;;;;;;;;3.67;3.67;;;;;;;;5133452;27;45489;-49
2023/10/26 02:03:18;;;;;;;;;3.33;2.00;;;;;;;;5142304;27;45672;-49
2023/10/26 02:05:43;;;;;;;;;5.33;5.33;;;;;;;;5138228;27;45423;-50
2023/10/26 02:08:08;;;;;;;;;6.00;4.00;;;;;;;;5132245;27;45356;-52
2023/10/26 02:10:34;;;;;;;;;5.00;4.00;;;;;;;;5129481;27;45431;-50
2023/10/26 02:13:00;;;;;;;;;2.50;2.50;;;;;;;;5119576;27;45482;-52
2023/10/26 02:15:25;;;;;;;;;3.33;3.33;;;;;;;;5128445;27;45525;-52
2023/10/26 02:17:50;;;;;;;;;4.33;3.00;;;;;;;;5133283;27;45404;-50
2023/10/26 02:20:16;;;;;;;;;4.33;4.33;;;;;;;;5126656;27;45397;-51
2023/10/26 02:22:41;;;;;;;;;4.00;4.00;;;;;;;;5132082;27;45511;-51
2023/10/26 02:25:06;;;;;;;;;6.33;4.67;;;;;;;;5137729;27;46027;-48
2023/10/26 02:27:32;;;;;;;;;4.67;4.00;;;;;;;;5139078;27;45219;-48
2023/10/26 02:29:57;;;;;;;;;6.00;4.00;;;;;;;;5127026;27;45495;-49
2023/10/26 02:32:22;;;;;;;;;2.00;2.00;;;;;;;;5142253;27;45268;-51
2023/10/26 02:34:47;;;;;;;;;5.00;5.00;;;;;;;;5132834;27;45357;-51
2023/10/26 02:37:13;;;;;;;;;4.00;2.67;;;;;;;;5113907;27;45411;-48
2023/10/26 02:39:38;;;;;;;;;5.67;4.67;;;;;;;;5139003;27;45241;-48
2023/10/26 02:42:03;;;;;;;;;3.67;3.67;;;;;;;;5136154;27;45448;-51
2023/10/26 02:44:28;;;;;;;;;3.33;3.33;;;;;;;;5136763;27;46138;-51
2023/10/26 02:46:54;;;;;;;;;4.00;4.00;;;;;;;;5132118;27;45411;-51
2023/10/26 02:49:19;;;;;;;;;2.67;2.67;;;;;;;;5131477;27;45246;-52
2023/10/26 02:51:44;;;;;;;;;4.00;3.00;;;;;;;;5139535;27;45295;-49
2023/10/26 02:54:09;;;;;;;;;2.33;2.33;;;;;;;;5129114;27;45590;-49
2023/10/26 02:56:34;;;;;;;;;3.33;3.33;;;;;;;;5135509;27;45406;-53
2023/10/26 02:58:59;;;;;;;;;2.67;2.67;;;;;;;;5126231;27;45539;-49
2023/10/26 03:01:25;;;;;;;;;4.33;4.33;;;;;;;;5139371;27;45553;-49
2023/10/26 03:03:51;;;;;;;;;3.00;3.00;;;;;;;;5133783;27;45485;-52
2023/10/26 03:06:16;;;;;;;;;3.00;3.00;;;;;;;;5137501;27;45511;-50
2023/10/26 03:08:41;;;;;;;;;3.00;3.00;;;;;;;;5130163;27;45561;-50
2023/10/26 03:11:06;;;;;;;;;3.00;3.00;;;;;;;;5141068;27;45412;-51
2023/10/26 03:13:31;;;;;;;;;4.00;4.00;;;;;;;;5138704;27;45491;-51
2023/10/26 03:15:57;;;;;;;;;3.00;3.00;;;;;;;;5127189;27;45337;-48
2023/10/26 03:18:22;;;;;;;;;2.67;2.67;;;;;;;;5132928;27;45573;-50
2023/10/26 03:20:47;;;;;;;;;4.00;3.33;;;;;;;;5127899;27;45456;-50
2023/10/26 03:23:12;;;;;;;;;6.33;4.33;;;;;;;;5131324;27;46316;-49
2023/10/26 03:25:37;;;;;;;;;4.00;4.00;;;;;;;;5137569;27;45431;-51
2023/10/26 03:28:03;;;;;;;;;3.33;3.33;;;;;;;;5132592;27;45460;-49
2023/10/26 03:30:28;;;;;;;;;3.67;3.67;;;;;;;;5113698;27;45319;-53
2023/10/26 03:32:53;;;;;;;;;4.67;4.67;;;;;;;;5132489;27;45985;-53
2023/10/26 03:35:18;;;;;;;;;4.00;4.00;;;;;;;;5136195;27;45348;-52
2023/10/26 03:37:45;;;;;;;;;7.33;4.67;;;;;;;;5136115;27;45322;-53
2023/10/26 03:40:14;;;;;;;;;4.33;4.33;;;;;;;;5132251;27;45264;-51
2023/10/26 03:42:39;;;;;;;;;3.33;3.33;;;;;;;;5130705;27;47041;-51
2023/10/26 03:45:05;;;;;;;;;3.67;3.67;;;;;;;;5129468;27;45278;-50
2023/10/26 03:47:30;;;;;;;;;2.67;2.67;;;;;;;;5132449;27;45472;-50
2023/10/26 03:49:55;;;;;;;;;5.00;3.67;;;;;;;;5140647;27;45412;-50
2023/10/26 03:52:21;;;;;;;;;4.00;4.00;;;;;;;;5127995;27;46708;-51
2023/10/26 03:54:47;;;;;;;;;3.67;2.67;;;;;;;;5138766;27;45380;-51
2023/10/26 03:57:12;;;;;;;;;4.67;4.00;;;;;;;;5105121;27;45693;-51
2023/10/26 03:59:37;;;;;;;;;3.00;3.00;;;;;;;;5138434;27;45417;-50
2023/10/26 04:02:03;;;;;;;;;3.67;3.67;;;;;;;;5127458;27;46531;-52
2023/10/26 04:04:28;;;;;;;;;4.67;3.00;;;;;;;;5131174;27;45404;-50
2023/10/26 04:06:53;;;;;;;;;5.67;3.67;;;;;;;;5131085;27;45510;-53
2023/10/26 04:09:18;;;;;;;;;3.00;3.00;;;;;;;;5130500;27;45326;-51
2023/10/26 04:11:45;;;;;;;;;5.00;3.33;;;;;;;;5132906;27;45759;-51
2023/10/26 04:14:10;;;;;;;;;5.33;5.33;;;;;;;;5139985;27;45292;-50
2023/10/26 04:16:35;;;;;;;;;7.00;7.00;;;;;;;;5131598;27;45432;-49
2023/10/26 04:19:00;;;;;;;;;7.67;6.67;;;;;;;;5130236;27;45462;-51
2023/10/26 04:21:25;;;;;;;;;6.33;4.67;;;;;;;;5129262;27;46402;-52
2023/10/26 04:23:51;;;;;;;;;6.67;6.33;;;;;;;;5109723;27;45501;-52
2023/10/26 04:26:16;;;;;;;;;6.67;6.67;;;;;;;;5134862;27;45491;-52
2023/10/26 04:28:41;;;;;;;;;5.00;5.00;;;;;;;;5137961;27;45485;-50
2023/10/26 04:31:06;;;;;;;;;7.00;7.00;;;;;;;;5138324;27;45297;-51
2023/10/26 04:33:31;;;;;;;;;6.00;6.00;;;;;;;;5132902;27;45222;-50
2023/10/26 04:35:57;;;;;;;;;7.33;6.00;;;;;;;;5126108;27;45511;-49
2023/10/26 04:38:23;;;;;;;;;6.33;5.33;;;;;;;;5137882;27;45349;-52
2023/10/26 04:40:48;;;;;;;;;6.67;6.67;;;;;;;;5134138;27;45308;-48
2023/10/26 04:43:14;;;;;;;;;4.00;4.00;;;;;;;;5131579;27;45359;-53
2023/10/26 04:45:39;;;;;;;;;4.67;4.67;;;;;;;;5139946;27;45131;-50
2023/10/26 04:48:04;;;;;;;;;5.67;4.00;;;;;;;;5130372;27;45422;-52
2023/10/26 04:50:32;;;;;;;;;4.00;3.67;;;;;;;;5125776;27;45384;-52
2023/10/26 04:52:58;;;;;;;;;3.67;3.67;;;;;;;;5136523;27;45406;-51
2023/10/26 04:55:23;;;;;;;;;5.00;5.00;;;;;;;;5130443;27;45579;-52
2023/10/26 04:57:48;;;;;;;;;6.00;4.67;;;;;;;;5140419;27;45386;-48
2023/10/26 05:00:13;;;;;;;;;3.33;3.33;;;;;;;;5138422;27;45599;-50
2023/10/26 05:02:40;;;;;;;;;4.33;4.33;;;;;;;;5138467;27;45354;-51
2023/10/26 05:05:05;;;;;;;;;3.00;3.00;;;;;;;;5138781;27;45537;-49
2023/10/26 05:07:30;;;;;;;;;5.67;5.00;;;;;;;;5139424;27;45447;-49
2023/10/26 05:09:56;;;;;;;;;3.33;3.33;;;;;;;;5139229;27;45474;-50
2023/10/26 05:12:21;;;;;;;;;5.00;5.00;;;;;;;;5139874;27;45277;-51
2023/10/26 05:14:47;;;;;;;;;4.00;4.00;;;;;;;;5140117;27;45514;-51
2023/10/26 05:17:12;;;;;;;;;3.33;3.33;;;;;;;;5139964;27;46391;-50
2023/10/26 05:19:37;;;;;;;;;4.00;3.67;;;;;;;;5139954;27;46023;-51
2023/10/26 05:22:03;;;;;;;;;4.00;4.00;;;;;;;;5140075;27;45306;-51
2023/10/26 05:24:29;;;;;;;;;2.67;2.67;;;;;;;;5136531;27;45411;-50
2023/10/26 05:26:54;;;;;;;;;3.00;3.00;;;;;;;;5129217;27;45665;-49
2023/10/26 05:29:19;;;;;;;;;2.67;2.67;;;;;;;;5142463;27;45456;-53
2023/10/26 05:31:45;;;;;;;;;3.67;3.67;;;;;;;;5143110;27;45482;-50
2023/10/26 05:34:10;;;;;;;;;2.67;2.33;;;;;;;;5142685;27;45409;-51
2023/10/26 05:36:35;;;;;;;;;3.00;2.33;;;;;;;;5133610;27;45440;-52
2023/10/26 05:39:01;;;;;;;;;1.67;1.67;;;;;;;;5133882;27;45567;-50
2023/10/26 05:41:26;;;;;;;;;1.67;1.67;;;;;;;;5134769;27;45473;-53
2023/10/26 05:43:51;;;;;;;;;2.67;1.67;;;;;;;;5122013;27;45471;-51
2023/10/26 05:46:17;;;;;;;;;2.00;2.00;;;;;;;;5140379;27;45764;-50
2023/10/26 05:48:43;;;;;;;;;1.33;1.33;;;;;;;;5124172;27;47158;-48
2023/10/26 05:51:08;;;;;;;;;0.33;0.33;;;;;;;;5141897;27;45470;-51
2023/10/26 05:53:34;;;;;;;;;0.00;0.00;;;;;;;;5142812;27;45407;-49
2023/10/26 05:55:59;;;;;;;;;0.67;0.67;;;;;;;;5140937;27;45297;-49
2023/10/26 05:58:25;;;;;;;;;1.00;1.00;;;;;;;;5141356;27;45402;-48
2023/10/26 06:00:51;;;;;;;;;0.67;0.67;;;;;;;;5140602;27;45333;-50
2023/10/26 06:03:16;;;;;;;;;0.00;0.00;;;;;;;;5121573;27;45301;-52
2023/10/26 06:05:41;;;;;;;;;0.67;0.67;;;;;;;;5137423;27;45534;-50
2023/10/26 06:08:06;;;;;;;;;0.00;0.00;;;;;;;;5133103;27;45698;-48
2023/10/26 06:10:31;;;;;;;;;0.00;0.00;;;;;;;;5123840;27;45407;-51
2023/10/26 06:12:57;;;;;;;;;1.00;0.00;;;;;;;;5142069;27;45226;-49
2023/10/26 06:15:22;;;;;;;;;0.00;0.00;;;;;;;;5141240;27;45440;-51
2023/10/26 06:17:48;;;;;;;;;1.33;0.00;;;;;;;;5140611;27;46798;-52
2023/10/26 06:20:13;;;;;;;;;0.00;0.00;;;;;;;;5140637;27;45785;-50
2023/10/26 06:22:38;;;;;;;;;0.00;0.00;;;;;;;;5139945;27;45816;-51
2023/10/26 06:25:05;;;;;;;;;1.67;0.00;;;;;;;;5141389;27;45473;-51
2023/10/26 06:27:30;;;;;;;;;1.33;0.00;;;;;;;;5142736;27;45540;-50
2023/10/26 06:29:56;;;;;;;;;0.00;0.00;;;;;;;;5131470;27;45401;-51
2023/10/26 06:32:21;;;;;;;;;2.00;0.00;;;;;;;;5144062;27;45405;-49
2023/10/26 06:34:46;;;;;;;;;0.00;0.00;;;;;;;;5143537;27;45315;-50
2023/10/26 06:37:12;;;;;;;;;0.33;0.33;;;;;;;;5125106;27;46322;-49
2023/10/26 06:39:37;;;;;;;;;0.67;0.33;;;;;;;;5144242;27;45304;-52
2023/10/26 06:42:02;;;;;;;;;0.33;0.33;;;;;;;;5134827;27;45452;-48
2023/10/26 06:44:27;;;;;;;;;2.00;0.00;;;;;;;;5130018;27;45288;-48
2023/10/26 06:46:53;;;;;;;;;0.33;0.33;;;;;;;;5143852;27;45498;-51
2023/10/26 06:49:18;;;;;;;;;1.00;1.00;;;;;;;;5144023;27;45447;-52
2023/10/26 06:51:43;;;;;;;;;1.00;0.67;;;;;;;;5144186;27;45515;-52
2023/10/26 06:54:09;;;;;;;;;0.67;0.67;;;;;;;;5143839;27;45457;-50
2023/10/26 06:56:36;;;;;;;;;0.00;0.00;;;;;;;;5143428;27;46176;-50
2023/10/26 06:59:02;;;;;;;;;1.67;0.67;;;;;;;;5143532;27;45347;-51
2023/10/26 07:01:27;;;;;;;;;1.33;1.33;;;;;;;;5143925;27;45230;-49
2023/10/26 07:03:52;;;;;;;;;1.33;1.33;;;;;;;;5143704;27;45220;-52
2023/10/26 07:06:18;;;;;;;;;4.67;1.67;;;;;;;;5143675;27;45531;-50
2023/10/26 07:08:43;;;;;;;;;2.33;0.67;;;;;;;;5143900;27;45293;-51
2023/10/26 07:11:09;;;;;;;;;1.67;1.67;;;;;;;;5143212;27;45309;-51
2023/10/26 07:13:34;;;;;;;;;3.67;2.33;;;;;;;;5143539;27;45482;-52
2023/10/26 07:16:00;;;;;;;;;2.00;0.00;;;;;;;;5124562;27;46150;-51
2023/10/26 07:18:25;;;;;;;;;3.00;1.67;;;;;;;;5143169;27;45506;-51
2023/10/26 07:20:51;;;;;;;;;3.00;0.67;;;;;;;;5143492;27;45270;-50
2023/10/26 07:23:17;;;;;;;;;0.33;0.33;;;;;;;;5143553;27;45160;-51
2023/10/26 07:25:42;;;;;;;;;2.00;0.33;;;;;;;;5143017;27;45371;-50
2023/10/26 07:28:07;;;;;;;;;3.00;3.00;;;;;;;;5143291;27;45556;-50
2023/10/26 07:30:38;;;;;;;;;1.33;0.67;;;;;;;;5124835;27;45309;-51
2023/10/26 07:33:03;;;;;;;;;2.33;1.67;;;;;;;;5143409;27;45187;-49
2023/10/26 07:35:28;;;;;;;;;1.67;0.67;;;;;;;;5143117;27;45351;-49
2023/10/26 07:37:53;;;;;;;;;1.00;0.67;;;;;;;;5144816;27;45441;-49
2023/10/26 07:40:18;;;;;;;;;2.33;0.67;;;;;;;;5143088;27;45274;-51
2023/10/26 07:42:43;;;;;;;;;2.00;1.33;;;;;;;;5143308;27;45416;-52
2023/10/26 07:45:09;;;;;;;;;5.00;3.00;;;;;;;;5142778;27;45449;-51
2023/10/26 07:47:34;;;;;;;;;1.33;1.00;;;;;;;;5143204;27;45259;-49
2023/10/26 07:49:59;;;;;;;;;4.00;1.67;;;;;;;;5124680;27;45326;-48
2023/10/26 07:52:25;;;;;;;;;1.67;1.67;;;;;;;;5142990;27;45583;-49
2023/10/26 07:54:50;;;;;;;;;3.33;1.67;;;;;;;;5142942;27;45982;-50
2023/10/26 07:57:16;;;;;;;;;2.33;1.33;;;;;;;;5142706;27;45160;-49
2023/10/26 07:59:41;;;;;;;;;1.67;1.67;;;;;;;;5142012;27;45407;-48
2023/10/26 08:02:07;;;;;;;;;1.67;1.33;;;;;;;;5142966;27;45629;-49
2023/10/26 08:04:32;;;;;;;;;5.00;2.33;;;;;;;;5142765;27;46595;-50
2023/10/26 08:06:57;;;;;;;;;2.67;2.67;;;;;;;;5142607;27;45270;-52
2023/10/26 08:09:22;;;;;;;;;1.67;1.67;;;;;;;;5142709;27;45314;-51
2023/10/26 08:11:48;;;;;;;;;2.00;1.00;;;;;;;;5142473;27;45576;-51
2023/10/26 08:14:14;;;;;;;;;4.00;0.67;;;;;;;;5142874;27;45531;-48
2023/10/26 08:16:39;;;;;;;;;6.67;3.00;;;;;;;;5142622;27;45436;-49
2023/10/26 08:19:04;;;;;;;;;2.33;1.00;;;;;;;;5124280;27;45261;-52
2023/10/26 08:21:30;;;;;;;;;6.00;3.00;;;;;;;;5142652;27;45255;-51
2023/10/26 08:23:55;;;;;;;;;2.67;1.67;;;;;;;;5123878;27;47393;-51
2023/10/26 08:26:20;;;;;;;;;0.00;0.00;;;;;;;;5123248;27;45538;-48
2023/10/26 08:28:45;;;;;;;;;2.00;0.67;;;;;;;;5142342;27;45252;-49
2023/10/26 08:31:10;;;;;;;;;0.67;0.67;;;;;;;;5142262;27;45228;-50
2023/10/26 08:33:36;;;;;;;;;3.00;1.33;;;;;;;;5142463;27;46450;-49
2023/10/26 08:36:04;;;;;;;;;2.33;0.00;;;;;;;;5123577;27;45310;-49
2023/10/26 08:38:29;;;;;;;;;1.00;1.00;;;;;;;;5142577;27;45354;-51
2023/10/26 08:40:55;;;;;;;;;3.67;1.00;;;;;;;;5141937;27;45226;-48
2023/10/26 08:43:21;;;;;;;;;2.67;0.67;;;;;;;;5142130;27;46113;-49
2023/10/26 08:45:47;;;;;;;;;1.33;0.67;;;;;;;;5141992;27;45428;-51
2023/10/26 08:48:16;;;;;;;;;3.67;1.33;;;;;;;;5142286;27;45520;-49
2023/10/26 08:50:42;;;;;;;;;0.00;0.00;;;;;;;;5123739;27;45517;-49
2023/10/26 08:53:07;;;;;;;;;2.33;1.00;;;;;;;;5123337;27;47159;-51
2023/10/26 08:55:33;;;;;;;;;1.00;1.00;;;;;;;;5141706;27;45297;-48
2023/10/26 08:58:02;;;;;;;;;1.00;1.00;;;;;;;;5145074;27;45152;-49
2023/10/26 09:00:29;;;;;;;;;0.33;0.33;;;;;;;;5127308;27;45240;-50
2023/10/26 09:02:54;;;;;;;;;2.00;1.00;;;;;;;;5146006;27;45423;-50
2023/10/26 09:05:19;;;;;;;;;2.33;1.00;;;;;;;;5145969;27;45558;-52
2023/10/26 09:07:44;;;;;;;;;3.00;1.00;;;;;;;;5145606;27;45324;-48
2023/10/26 09:10:10;;;;;;;;;2.67;2.00;;;;;;;;5145440;27;45355;-49
2023/10/26 09:12:35;;;;;;;;;1.00;1.00;;;;;;;;5145419;27;45485;-49
2023/10/26 09:15:01;;;;;;;;;2.00;0.00;;;;;;;;5145609;27;45482;-50
2023/10/26 09:17:27;;;;;;;;;3.00;3.00;;;;;;;;5145583;27;45253;-48
2023/10/26 09:19:53;;;;;;;;;2.67;0.33;;;;;;;;5145564;27;45540;-50
2023/10/26 09:22:18;;;;;;;;;1.00;1.00;;;;;;;;5145328;27;45303;-49
2023/10/26 09:24:43;;;;;;;;;4.00;2.00;;;;;;;;5145456;27;45155;-49
2023/10/26 09:27:16;;;;;;;;;3.67;1.67;;;;;;;;5145263;27;45232;-49
2023/10/26 09:29:42;;;;;;;;;3.00;2.00;;;;;;;;5145330;27;45253;-51
2023/10/26 09:32:07;;;;;;;;;5.67;2.00;;;;;;;;5145892;27;45451;-51
2023/10/26 09:34:42;;;;;;;;;2.00;0.67;;;;;;;;5145167;27;45235;-48
2023/10/26 09:37:08;;;;;;;;;1.67;0.67;;;;;;;;5145229;27;45363;-48
2023/10/26 09:39:34;;;;;;;;;2.67;1.00;;;;;;;;5145121;27;45273;-48
2023/10/26 09:42:01;;;;;;;;;3.00;1.33;;;;;;;;5144717;27;46223;-49
2023/10/26 09:44:27;;;;;;;;;1.67;1.00;;;;;;;;5144939;27;45228;-51
2023/10/26 09:46:53;;;;;;;;;1.00;1.00;;;;;;;;5145084;27;45465;-52
2023/10/26 09:49:19;;;;;;;;;2.67;1.00;;;;;;;;5144985;27;45245;-49
2023/10/26 09:51:45;;;;;;;;;1.00;0.33;;;;;;;;5144894;27;46437;-52
2023/10/26 09:54:13;;;;;;;;;3.00;2.00;;;;;;;;5126215;27;45282;-50
2023/10/26 09:56:40;;;;;;;;;2.67;1.00;;;;;;;;5144936;27;45447;-48
2023/10/26 09:59:06;;;;;;;;;1.00;1.00;;;;;;;;5144912;27;45319;-52
2023/10/26 10:01:36;;;;;;;;;1.33;1.33;;;;;;;;5144583;27;45391;-49
2023/10/26 10:04:02;;;;;;;;;1.33;0.33;;;;;;;;5144948;27;46077;-52
2023/10/26 10:06:43;;;;;;;;;3.00;1.00;;;;;;;;5144867;27;45455;-52
2023/10/26 10:09:10;;;;;;;;;1.00;1.00;;;;;;;;5138159;27;45465;-51
2023/10/26 10:11:35;;;;;;;;;2.00;1.67;;;;;;;;5144251;27;45412;-49
2023/10/26 10:14:01;;;;;;;;;5.00;1.00;;;;;;;;5144506;27;45324;-53
2023/10/26 10:16:35;;;;;;;;;3.33;1.00;;;;;;;;5144670;27;45343;-50
2023/10/26 10:19:15;;;;;;;;;3.33;3.00;;;;;;;;5144670;27;45459;-52
2023/10/26 10:21:41;;;;;;;;;2.67;2.67;;;;;;;;5144231;27;45431;-51
2023/10/26 10:24:06;;;;;;;;;1.33;0.33;;;;;;;;5144396;27;45354;-52
2023/10/26 10:26:51;;;;;;;;;2.00;2.00;;;;;;;;5144480;27;45233;-50
2023/10/26 10:29:18;;;;;;;;;2.33;2.00;;;;;;;;5125430;27;45353;-51
2023/10/26 10:31:44;;;;;;;;;3.33;2.00;;;;;;;;5144398;27;47558;-52
2023/10/26 10:34:09;;;;;;;;;3.00;2.00;;;;;;;;5143912;27;45370;-49
2023/10/26 10:36:53;;;;;;;;;2.00;2.00;;;;;;;;5125725;27;45368;-51
2023/10/26 10:39:19;;;;;;;;;2.67;1.00;;;;;;;;5143914;27;45387;-50
2023/10/26 10:41:45;;;;;;;;;2.00;1.67;;;;;;;;5143925;27;45752;-49
2023/10/26 10:44:10;;;;;;;;;2.00;2.00;;;;;;;;5124871;27;45494;-49
2023/10/26 10:46:35;;;;;;;;;1.00;1.00;;;;;;;;5144350;27;45436;-50
2023/10/26 10:49:01;;;;;;;;;1.67;1.67;;;;;;;;5143990;27;45342;-51
2023/10/26 10:51:29;;;;;;;;;0.75;0.75;;;;;;;;5143990;27;45754;-51
2023/10/26 10:53:55;;;;;;;;;4.33;2.00;;;;;;;;5125275;27;45809;-51
2023/10/26 10:56:20;;;;;;;;;3.00;1.00;;;;;;;;5143960;27;45277;-51
2023/10/26 10:58:45;;;;;;;;;1.33;1.33;;;;;;;;5144073;27;45271;-53
2023/10/26 11:01:16;;;;;;;;;4.00;3.00;;;;;;;;5144072;27;46303;-50
2023/10/26 11:03:42;;;;;;;;;3.00;1.00;;;;;;;;5143673;27;45390;-51
2023/10/26 11:06:11;;;;;;;;;3.67;2.00;;;;;;;;5143742;27;45601;-51
2023/10/26 11:08:37;;;;;;;;;4.67;1.33;;;;;;;;5143609;27;45327;-51
2023/10/26 11:11:02;;;;;;;;;2.00;2.00;;;;;;;;5143200;27;45349;-49
2023/10/26 11:13:28;;;;;;;;;2.33;1.00;;;;;;;;5124810;27;45973;-48
2023/10/26 11:15:53;;;;;;;;;1.67;1.67;;;;;;;;5124816;27;45285;-48
2023/10/26 11:18:18;;;;;;;;;2.00;2.00;;;;;;;;5143520;27;45616;-52
2023/10/26 11:20:45;;;;;;;;;4.00;2.33;;;;;;;;5142967;27;45536;-49
2023/10/26 11:23:11;;;;;;;;;8.33;2.00;;;;;;;;5143193;27;45307;-50
2023/10/26 11:25:37;;;;;;;;;4.00;3.00;;;;;;;;5144404;27;45409;-49
2023/10/26 11:28:02;;;;;;;;;1.00;1.00;;;;;;;;5144835;27;45245;-49
2023/10/26 11:30:29;;;;;;;;;2.67;0.33;;;;;;;;5143673;27;45350;-49
2023/10/26 11:32:54;;;;;;;;;4.33;1.67;;;;;;;;5143092;27;45274;-49
2023/10/26 11:35:19;;;;;;;;;2.67;2.00;;;;;;;;5143453;27;45288;-52
2023/10/26 11:37:48;;;;;;;;;3.33;1.00;;;;;;;;5143258;27;45455;-52
2023/10/26 11:40:14;;;;;;;;;1.33;1.33;;;;;;;;5142896;27;45538;-48
2023/10/26 11:42:43;;;;;;;;;2.33;1.00;;;;;;;;5142851;27;45337;-50
2023/10/26 11:45:08;;;;;;;;;5.33;0.67;;;;;;;;5143228;27;45277;-51
2023/10/26 11:47:47;;;;;;;;;4.00;1.00;;;;;;;;5124184;27;45390;-48
2023/10/26 11:50:25;;;;;;;;;1.33;0.33;;;;;;;;5142899;27;46560;-49
2023/10/26 11:52:50;;;;;;;;;4.00;1.00;;;;;;;;5124561;27;45321;-52
2023/10/26 11:55:17;;;;;;;;;1.75;1.75;;;;;;;;5142826;27;45385;-51
2023/10/26 11:57:43;;;;;;;;;1.00;1.00;;;;;;;;5142924;27;45459;-48
2023/10/26 12:00:09;;;;;;;;;2.67;1.00;;;;;;;;5142665;27;45284;-51
2023/10/26 12:02:34;;;;;;;;;1.25;1.00;;;;;;;;5142797;27;45327;-50
2023/10/26 12:05:00;;;;;;;;;2.00;2.00;;;;;;;;5143125;27;45255;-50
2023/10/26 12:07:25;;;;;;;;;2.00;2.00;;;;;;;;5142648;27;45614;-50
2023/10/26 12:09:50;;;;;;;;;0.67;0.67;;;;;;;;5142790;27;45472;-49
2023/10/26 12:12:15;;;;;;;;;2.33;1.00;;;;;;;;5123950;27;45226;-51
2023/10/26 12:14:43;;;;;;;;;1.00;1.00;;;;;;;;5142652;27;45265;-52
2023/10/26 12:17:08;;;;;;;;;3.00;2.00;;;;;;;;5142818;27;45618;-50
2023/10/26 12:19:33;;;;;;;;;2.25;1.00;;;;;;;;5142458;27;46294;-52
2023/10/26 12:21:59;;;;;;;;;3.33;1.33;;;;;;;;5142467;27;45263;-48
2023/10/26 12:24:24;;;;;;;;;1.75;0.75;;;;;;;;5124061;27;45313;-50
2023/10/26 12:26:54;;;;;;;;;1.00;1.00;;;;;;;;5142735;27;45558;-48
2023/10/26 12:29:20;;;;;;;;;2.00;0.50;;;;;;;;5123204;27;46103;-48
2023/10/26 12:31:45;;;;;;;;;2.00;1.00;;;;;;;;5143417;27;45423;-52
2023/10/26 12:34:10;;;;;;;;;2.00;1.00;;;;;;;;5146198;27;45516;-52
2023/10/26 12:36:35;;;;;;;;;2.67;1.33;;;;;;;;5146110;27;45439;-51
2023/10/26 12:39:02;;;;;;;;;3.00;1.00;;;;;;;;5146169;27;45261;-52
2023/10/26 12:41:27;;;;;;;;;3.50;1.00;;;;;;;;5145958;27;45328;-49
2023/10/26 12:43:53;;;;;;;;;1.33;0.33;;;;;;;;5146240;27;45431;-49
2023/10/26 12:46:18;;;;;;;;;3.00;1.50;;;;;;;;5146026;27;45286;-48
2023/10/26 12:48:43;;;;;;;;;0.75;0.25;;;;;;;;5145968;27;45669;-51
2023/10/26 12:51:08;;;;;;;;;5.50;1.00;;;;;;;;5145950;27;45342;-52
2023/10/26 12:53:35;;;;;;;;;1.00;1.00;;;;;;;;5146102;27;45301;-50
2023/10/26 12:56:01;;;;;;;;;1.67;1.67;;;;;;;;5113757;27;45340;-49
2023/10/26 12:58:26;;;;;;;;;0.00;0.00;;;;;;;;5145371;27;46381;-48
2023/10/26 13:00:51;;;;;;;;;1.75;0.75;;;;;;;;5145761;27;45322;-52
2023/10/26 13:03:16;;;;;;;;;4.75;0.00;;;;;;;;5145974;27;45231;-49
2023/10/26 13:05:41;;;;;;;;;1.00;0.75;;;;;;;;5145595;27;45316;-49
2023/10/26 13:08:08;;;;;;;;;1.33;1.00;;;;;;;;5145344;27;45175;-49
2023/10/26 13:10:33;;;;;;;;;2.00;1.00;;;;;;;;5131284;27;45261;-50
2023/10/26 13:12:58;;;;;;;;;1.00;1.00;;;;;;;;5145571;27;45210;-50
2023/10/26 13:15:23;;;;;;;;;2.00;1.00;;;;;;;;5145595;27;45365;-48
2023/10/26 13:17:49;;;;;;;;;1.00;1.00;;;;;;;;5145765;27;45416;-48
2023/10/26 13:20:14;;;;;;;;;3.25;0.50;;;;;;;;5145213;27;45233;-51
2023/10/26 13:22:39;;;;;;;;;2.00;1.67;;;;;;;;5146879;27;45436;-48
2023/10/26 13:25:04;;;;;;;;;4.75;1.25;;;;;;;;5127150;27;45568;-48
2023/10/26 13:27:29;;;;;;;;;1.25;0.50;;;;;;;;5145074;27;46071;-48
2023/10/26 13:29:55;;;;;;;;;2.33;1.67;;;;;;;;5144958;27;45285;-49
2023/10/26 13:32:20;;;;;;;;;0.75;0.75;;;;;;;;5145411;27;45222;-49
2023/10/26 13:34:45;;;;;;;;;5.33;2.00;;;;;;;;5145282;27;45202;-50
2023/10/26 13:37:10;;;;;;;;;2.33;2.00;;;;;;;;5144944;27;46434;-50
2023/10/26 13:39:35;;;;;;;;;1.00;1.00;;;;;;;;5145095;27;45226;-50
2023/10/26 13:42:01;;;;;;;;;2.00;2.00;;;;;;;;5145184;27;45356;-49
2023/10/26 13:44:26;;;;;;;;;3.00;2.00;;;;;;;;5144910;27;45225;-51
2023/10/26 13:46:51;;;;;;;;;2.75;1.25;;;;;;;;5145111;27;46449;-48
2023/10/26 13:49:17;;;;;;;;;4.75;0.00;;;;;;;;5144950;27;45220;-52
2023/10/26 13:51:42;;;;;;;;;3.00;1.33;;;;;;;;5126380;27;45301;-48
2023/10/26 13:54:07;;;;;;;;;1.33;0.67;;;;;;;;5144856;27;45479;-51
2023/10/26 13:56:33;;;;;;;;;3.00;1.00;;;;;;;;5144635;27;45354;-47
2023/10/26 13:58:58;;;;;;;;;3.33;1.67;;;;;;;;5144453;27;45311;-49
2023/10/26 14:01:24;;;;;;;;;1.67;0.67;;;;;;;;5144845;27;45374;-52
2023/10/26 14:03:50;;;;;;;;;4.00;1.33;;;;;;;;5144847;27;45558;-50
2023/10/26 14:06:15;;;;;;;;;3.00;2.00;;;;;;;;5125740;27;46041;-50
2023/10/26 14:08:40;;;;;;;;;2.67;1.00;;;;;;;;5132847;27;45382;-49
2023/10/26 14:11:05;;;;;;;;;5.00;2.00;;;;;;;;5134506;27;45349;-50
2023/10/26 14:13:30;;;;;;;;;1.00;1.00;;;;;;;;5144510;27;45323;-50
2023/10/26 14:15:55;;;;;;;;;2.00;2.00;;;;;;;;5144460;27;45335;-50
2023/10/26 14:18:21;;;;;;;;;0.67;0.67;;;;;;;;5144502;27;45308;-49
2023/10/26 14:20:46;;;;;;;;;0.00;0.00;;;;;;;;5145249;27;45199;-53
2023/10/26 14:23:11;;;;;;;;;5.00;1.00;;;;;;;;5144779;27;45338;-52
2023/10/26 14:25:36;;;;;;;;;4.00;1.00;;;;;;;;5144417;27;46642;-49
2023/10/26 14:28:01;;;;;;;;;1.33;1.00;;;;;;;;5144044;27;45344;-50
2023/10/26 14:30:26;;;;;;;;;1.33;0.33;;;;;;;;5144429;27;45424;-48
2023/10/26 14:32:52;;;;;;;;;2.00;1.00;;;;;;;;5144211;27;45293;-52
2023/10/26 14:35:17;;;;;;;;;3.00;1.00;;;;;;;;5144253;27;45488;-52